sensor_id;sensor_type;location;lat;lon;timestamp;P1;durP1;ratioP1;P2;durP2;ratioP2
39214;SDS011;24932;51.746;14.334;2023-05-09T00:00:40;5.55;;;2.37;;
39214;SDS011;24932;51.746;14.334;2023-05-09T00:04:40;5.05;;;2.28;;
39214;SDS011;24932;51.746;14.334;2023-05-09T00:08:40;3.78;;;2.62;;
39214;SDS011;24932;51.746;14.334;2023-05-09T00:12:40;9.88;;;2.8;;
39214;SDS011;24932;51.746;14.334;2023-05-09T00:16:40;5.07;;;2.53;;
39214;SDS011;24932;51.746;14.334;2023-05-09T00:20:40;5.87;;;2.78;;
39214;SDS011;24932;51.746;14.334;2023-05-09T00:24:40;4.82;;;2.72;;
39214;SDS011;24932;51.746;14.334;2023-05-09T00:28:40;4.22;;;2.3;;
39214;SDS011;24932;51.746;14.334;2023-05-09T00:32:40;4.55;;;2.17;;
39214;SDS011;24932;51.746;14.334;2023-05-09T00:36:40;4.85;;;3.1;;
39214;SDS011;24932;51.746;14.334;2023-05-09T00:40:40;6.87;;;2.42;;
39214;SDS011;24932;51.746;14.334;2023-05-09T00:44:41;7.1;;;2.87;;
39214;SDS011;24932;51.746;14.334;2023-05-09T00:48:40;7.45;;;1.9;;
39214;SDS011;24932;51.746;14.334;2023-05-09T00:52:40;3.08;;;2.03;;
39214;SDS011;24932;51.746;14.334;2023-05-09T00:56:40;5.0;;;3.03;;
39214;SDS011;24932;51.746;14.334;2023-05-09T01:00:40;5.37;;;2.4;;
39214;SDS011;24932;51.746;14.334;2023-05-09T01:04:40;5.85;;;2.2;;
39214;SDS011;24932;51.746;14.334;2023-05-09T01:08:43;3.65;;;2.37;;
39214;SDS011;24932;51.746;14.334;2023-05-09T01:12:42;6.78;;;2.97;;
39214;SDS011;24932;51.746;14.334;2023-05-09T01:16:42;3.87;;;2.78;;
39214;SDS011;24932;51.746;14.334;2023-05-09T01:20:41;7.57;;;3.03;;
39214;SDS011;24932;51.746;14.334;2023-05-09T01:24:47;4.97;;;2.6;;
39214;SDS011;24932;51.746;14.334;2023-05-09T01:28:46;6.2;;;3.12;;
39214;SDS011;24932;51.746;14.334;2023-05-09T01:32:41;5.75;;;3.4;;
39214;SDS011;24932;51.746;14.334;2023-05-09T01:36:41;6.07;;;2.72;;
39214;SDS011;24932;51.746;14.334;2023-05-09T01:40:40;6.78;;;3.1;;
39214;SDS011;24932;51.746;14.334;2023-05-09T01:44:41;3.75;;;2.5;;
39214;SDS011;24932;51.746;14.334;2023-05-09T01:48:40;5.57;;;2.58;;
39214;SDS011;24932;51.746;14.334;2023-05-09T01:52:40;11.73;;;2.4;;
39214;SDS011;24932;51.746;14.334;2023-05-09T01:56:41;3.33;;;2.17;;
39214;SDS011;24932;51.746;14.334;2023-05-09T02:00:40;11.75;;;3.22;;
39214;SDS011;24932;51.746;14.334;2023-05-09T02:04:40;8.98;;;3.2;;
39214;SDS011;24932;51.746;14.334;2023-05-09T02:08:40;6.6;;;2.53;;
39214;SDS011;24932;51.746;14.334;2023-05-09T02:12:40;6.07;;;2.75;;
39214;SDS011;24932;51.746;14.334;2023-05-09T02:16:41;5.55;;;2.7;;
39214;SDS011;24932;51.746;14.334;2023-05-09T02:20:40;7.35;;;2.75;;
39214;SDS011;24932;51.746;14.334;2023-05-09T02:24:39;8.05;;;2.72;;
39214;SDS011;24932;51.746;14.334;2023-05-09T02:28:40;4.55;;;2.8;;
39214;SDS011;24932;51.746;14.334;2023-05-09T02:32:40;10.5;;;2.67;;
39214;SDS011;24932;51.746;14.334;2023-05-09T02:36:40;7.43;;;3.1;;
39214;SDS011;24932;51.746;14.334;2023-05-09T02:40:41;4.62;;;3.1;;
39214;SDS011;24932;51.746;14.334;2023-05-09T02:44:40;4.0;;;2.67;;
39214;SDS011;24932;51.746;14.334;2023-05-09T02:48:40;5.95;;;2.83;;
39214;SDS011;24932;51.746;14.334;2023-05-09T02:52:41;5.93;;;2.33;;
39214;SDS011;24932;51.746;14.334;2023-05-09T02:56:40;6.4;;;3.65;;
39214;SDS011;24932;51.746;14.334;2023-05-09T03:00:40;6.07;;;3.1;;
39214;SDS011;24932;51.746;14.334;2023-05-09T03:04:40;4.62;;;2.85;;
39214;SDS011;24932;51.746;14.334;2023-05-09T03:08:40;8.77;;;3.58;;
39214;SDS011;24932;51.746;14.334;2023-05-09T03:12:40;4.57;;;3.33;;
39214;SDS011;24932;51.746;14.334;2023-05-09T03:16:40;5.15;;;2.87;;
39214;SDS011;24932;51.746;14.334;2023-05-09T03:20:41;7.95;;;3.05;;
39214;SDS011;24932;51.746;14.334;2023-05-09T03:24:40;4.5;;;3.17;;
39214;SDS011;24932;51.746;14.334;2023-05-09T03:28:40;6.3;;;3.35;;
39214;SDS011;24932;51.746;14.334;2023-05-09T03:32:40;20.3;;;3.0;;
39214;SDS011;24932;51.746;14.334;2023-05-09T03:36:40;4.9;;;2.93;;
39214;SDS011;24932;51.746;14.334;2023-05-09T03:40:40;5.15;;;2.5;;
39214;SDS011;24932;51.746;14.334;2023-05-09T03:44:40;6.4;;;2.97;;
39214;SDS011;24932;51.746;14.334;2023-05-09T03:48:40;6.85;;;3.2;;
39214;SDS011;24932;51.746;14.334;2023-05-09T03:52:41;8.25;;;3.5;;
39214;SDS011;24932;51.746;14.334;2023-05-09T03:56:40;8.83;;;3.77;;
39214;SDS011;24932;51.746;14.334;2023-05-09T04:00:40;6.93;;;3.83;;
39214;SDS011;24932;51.746;14.334;2023-05-09T04:04:41;4.05;;;2.85;;
39214;SDS011;24932;51.746;14.334;2023-05-09T04:08:40;6.15;;;2.97;;
39214;SDS011;24932;51.746;14.334;2023-05-09T04:12:41;5.28;;;2.9;;
39214;SDS011;24932;51.746;14.334;2023-05-09T04:16:40;10.02;;;4.62;;
39214;SDS011;24932;51.746;14.334;2023-05-09T04:20:40;10.05;;;3.37;;
39214;SDS011;24932;51.746;14.334;2023-05-09T04:24:40;5.78;;;3.4;;
39214;SDS011;24932;51.746;14.334;2023-05-09T04:28:40;9.88;;;3.53;;
39214;SDS011;24932;51.746;14.334;2023-05-09T04:32:40;4.93;;;3.22;;
39214;SDS011;24932;51.746;14.334;2023-05-09T04:36:41;7.3;;;3.67;;
39214;SDS011;24932;51.746;14.334;2023-05-09T04:40:40;6.07;;;3.75;;
39214;SDS011;24932;51.746;14.334;2023-05-09T04:44:41;5.35;;;3.08;;
39214;SDS011;24932;51.746;14.334;2023-05-09T04:48:41;4.2;;;2.97;;
39214;SDS011;24932;51.746;14.334;2023-05-09T04:52:41;5.28;;;3.03;;
39214;SDS011;24932;51.746;14.334;2023-05-09T04:56:40;3.75;;;3.12;;
39214;SDS011;24932;51.746;14.334;2023-05-09T05:00:40;3.53;;;2.72;;
39214;SDS011;24932;51.746;14.334;2023-05-09T05:04:40;5.75;;;2.97;;
39214;SDS011;24932;51.746;14.334;2023-05-09T05:08:40;6.6;;;2.55;;
39214;SDS011;24932;51.746;14.334;2023-05-09T05:12:40;8.6;;;4.03;;
39214;SDS011;24932;51.746;14.334;2023-05-09T05:16:40;4.35;;;2.92;;
39214;SDS011;24932;51.746;14.334;2023-05-09T05:20:40;5.5;;;3.2;;
39214;SDS011;24932;51.746;14.334;2023-05-09T05:24:40;5.07;;;2.87;;
39214;SDS011;24932;51.746;14.334;2023-05-09T05:28:40;6.0;;;3.37;;
39214;SDS011;24932;51.746;14.334;2023-05-09T05:32:41;4.72;;;2.67;;
39214;SDS011;24932;51.746;14.334;2023-05-09T05:36:40;9.02;;;3.58;;
39214;SDS011;24932;51.746;14.334;2023-05-09T05:40:41;7.18;;;3.47;;
39214;SDS011;24932;51.746;14.334;2023-05-09T05:44:40;5.75;;;3.15;;
39214;SDS011;24932;51.746;14.334;2023-05-09T05:48:40;6.28;;;3.12;;
39214;SDS011;24932;51.746;14.334;2023-05-09T05:52:40;6.18;;;2.92;;
39214;SDS011;24932;51.746;14.334;2023-05-09T05:56:39;6.68;;;4.18;;
39214;SDS011;24932;51.746;14.334;2023-05-09T06:00:40;6.2;;;3.1;;
39214;SDS011;24932;51.746;14.334;2023-05-09T06:04:40;11.55;;;2.83;;
39214;SDS011;24932;51.746;14.334;2023-05-09T06:08:41;11.5;;;2.72;;
39214;SDS011;24932;51.746;14.334;2023-05-09T06:12:39;5.7;;;3.0;;
39214;SDS011;24932;51.746;14.334;2023-05-09T06:16:40;5.28;;;3.25;;
39214;SDS011;24932;51.746;14.334;2023-05-09T06:20:40;4.53;;;3.2;;
39214;SDS011;24932;51.746;14.334;2023-05-09T06:24:40;4.15;;;2.7;;
39214;SDS011;24932;51.746;14.334;2023-05-09T06:28:40;6.07;;;2.7;;
39214;SDS011;24932;51.746;14.334;2023-05-09T06:32:40;8.55;;;3.3;;
39214;SDS011;24932;51.746;14.334;2023-05-09T06:36:40;4.87;;;3.12;;
39214;SDS011;24932;51.746;14.334;2023-05-09T06:40:40;5.87;;;2.8;;
39214;SDS011;24932;51.746;14.334;2023-05-09T06:44:41;5.35;;;2.47;;
39214;SDS011;24932;51.746;14.334;2023-05-09T06:48:40;5.53;;;2.6;;
39214;SDS011;24932;51.746;14.334;2023-05-09T06:52:40;4.95;;;2.53;;
39214;SDS011;24932;51.746;14.334;2023-05-09T06:56:41;11.12;;;3.42;;
39214;SDS011;24932;51.746;14.334;2023-05-09T07:00:40;3.4;;;2.47;;
39214;SDS011;24932;51.746;14.334;2023-05-09T07:04:40;6.97;;;2.7;;
39214;SDS011;24932;51.746;14.334;2023-05-09T07:08:40;3.8;;;2.7;;
39214;SDS011;24932;51.746;14.334;2023-05-09T07:12:40;3.08;;;2.3;;
39214;SDS011;24932;51.746;14.334;2023-05-09T07:16:40;4.07;;;2.58;;
39214;SDS011;24932;51.746;14.334;2023-05-09T07:20:40;4.15;;;2.7;;
39214;SDS011;24932;51.746;14.334;2023-05-09T07:24:40;5.43;;;2.72;;
39214;SDS011;24932;51.746;14.334;2023-05-09T07:28:40;4.03;;;2.72;;
39214;SDS011;24932;51.746;14.334;2023-05-09T07:32:40;4.22;;;1.98;;
39214;SDS011;24932;51.746;14.334;2023-05-09T07:36:40;3.7;;;2.53;;
39214;SDS011;24932;51.746;14.334;2023-05-09T07:40:40;6.25;;;2.3;;
39214;SDS011;24932;51.746;14.334;2023-05-09T07:44:40;5.75;;;2.5;;
39214;SDS011;24932;51.746;14.334;2023-05-09T07:48:40;2.9;;;2.33;;
39214;SDS011;24932;51.746;14.334;2023-05-09T07:52:40;2.03;;;1.83;;
39214;SDS011;24932;51.746;14.334;2023-05-09T07:56:40;3.08;;;2.35;;
39214;SDS011;24932;51.746;14.334;2023-05-09T08:00:41;4.25;;;2.25;;
39214;SDS011;24932;51.746;14.334;2023-05-09T08:04:40;3.4;;;2.25;;
39214;SDS011;24932;51.746;14.334;2023-05-09T08:08:40;8.65;;;2.5;;
39214;SDS011;24932;51.746;14.334;2023-05-09T08:12:40;3.42;;;2.92;;
39214;SDS011;24932;51.746;14.334;2023-05-09T08:16:40;4.03;;;2.67;;
39214;SDS011;24932;51.746;14.334;2023-05-09T08:20:40;5.05;;;2.53;;
39214;SDS011;24932;51.746;14.334;2023-05-09T08:24:41;4.93;;;2.45;;
39214;SDS011;24932;51.746;14.334;2023-05-09T08:28:40;5.68;;;3.05;;
39214;SDS011;24932;51.746;14.334;2023-05-09T08:32:41;5.9;;;2.62;;
39214;SDS011;24932;51.746;14.334;2023-05-09T08:36:40;7.03;;;3.33;;
39214;SDS011;24932;51.746;14.334;2023-05-09T08:40:41;4.1;;;2.67;;
39214;SDS011;24932;51.746;14.334;2023-05-09T08:44:40;4.05;;;1.85;;
39214;SDS011;24932;51.746;14.334;2023-05-09T08:48:40;4.07;;;2.4;;
39214;SDS011;24932;51.746;14.334;2023-05-09T08:52:40;3.37;;;2.25;;
39214;SDS011;24932;51.746;14.334;2023-05-09T08:56:40;4.12;;;2.58;;
39214;SDS011;24932;51.746;14.334;2023-05-09T09:00:40;4.8;;;2.03;;
39214;SDS011;24932;51.746;14.334;2023-05-09T09:04:40;7.95;;;2.65;;
39214;SDS011;24932;51.746;14.334;2023-05-09T09:08:40;4.1;;;2.58;;
39214;SDS011;24932;51.746;14.334;2023-05-09T09:12:40;2.9;;;2.5;;
39214;SDS011;24932;51.746;14.334;2023-05-09T09:16:41;9.4;;;2.95;;
39214;SDS011;24932;51.746;14.334;2023-05-09T09:20:45;3.87;;;2.2;;
39214;SDS011;24932;51.746;14.334;2023-05-09T09:24:40;2.85;;;2.4;;
39214;SDS011;24932;51.746;14.334;2023-05-09T09:28:40;6.45;;;2.35;;
39214;SDS011;24932;51.746;14.334;2023-05-09T09:32:40;3.2;;;2.28;;
39214;SDS011;24932;51.746;14.334;2023-05-09T09:36:40;5.47;;;2.6;;
39214;SDS011;24932;51.746;14.334;2023-05-09T09:40:48;3.85;;;2.4;;
39214;SDS011;24932;51.746;14.334;2023-05-09T09:44:40;7.82;;;3.28;;
39214;SDS011;24932;51.746;14.334;2023-05-09T09:48:40;4.6;;;2.78;;
39214;SDS011;24932;51.746;14.334;2023-05-09T09:52:40;2.72;;;2.12;;
39214;SDS011;24932;51.746;14.334;2023-05-09T09:56:40;4.43;;;2.3;;
39214;SDS011;24932;51.746;14.334;2023-05-09T10:00:41;3.65;;;2.1;;
39214;SDS011;24932;51.746;14.334;2023-05-09T10:04:40;5.37;;;2.3;;
39214;SDS011;24932;51.746;14.334;2023-05-09T10:08:41;4.75;;;2.5;;
39214;SDS011;24932;51.746;14.334;2023-05-09T10:12:40;6.05;;;2.5;;
39214;SDS011;24932;51.746;14.334;2023-05-09T10:16:45;4.93;;;2.42;;
39214;SDS011;24932;51.746;14.334;2023-05-09T10:20:40;5.07;;;2.1;;
39214;SDS011;24932;51.746;14.334;2023-05-09T10:24:41;5.5;;;2.12;;
39214;SDS011;24932;51.746;14.334;2023-05-09T10:28:40;10.0;;;2.28;;
39214;SDS011;24932;51.746;14.334;2023-05-09T10:32:41;5.28;;;2.05;;
39214;SDS011;24932;51.746;14.334;2023-05-09T10:36:40;7.55;;;2.28;;
39214;SDS011;24932;51.746;14.334;2023-05-09T10:40:40;4.12;;;1.98;;
39214;SDS011;24932;51.746;14.334;2023-05-09T10:44:40;4.03;;;2.28;;
39214;SDS011;24932;51.746;14.334;2023-05-09T10:48:40;3.05;;;2.5;;
39214;SDS011;24932;51.746;14.334;2023-05-09T10:53:16;10.18;;;3.0;;
39214;SDS011;24932;51.746;14.334;2023-05-09T10:56:40;5.35;;;2.6;;
39214;SDS011;24932;51.746;14.334;2023-05-09T11:00:41;3.08;;;2.15;;
39214;SDS011;24932;51.746;14.334;2023-05-09T11:04:41;11.63;;;2.55;;
39214;SDS011;24932;51.746;14.334;2023-05-09T11:08:40;3.7;;;1.9;;
39214;SDS011;24932;51.746;14.334;2023-05-09T11:12:51;7.1;;;2.6;;
39214;SDS011;24932;51.746;14.334;2023-05-09T11:16:55;5.68;;;1.98;;
39214;SDS011;24932;51.746;14.334;2023-05-09T11:20:41;5.03;;;1.98;;
39214;SDS011;24932;51.746;14.334;2023-05-09T11:24:43;2.47;;;1.52;;
39214;SDS011;24932;51.746;14.334;2023-05-09T11:28:40;3.1;;;2.05;;
39214;SDS011;24932;51.746;14.334;2023-05-09T11:32:41;3.25;;;1.7;;
39214;SDS011;24932;51.746;14.334;2023-05-09T11:36:41;4.72;;;2.5;;
39214;SDS011;24932;51.746;14.334;2023-05-09T11:40:40;4.72;;;2.35;;
39214;SDS011;24932;51.746;14.334;2023-05-09T11:44:40;7.97;;;2.5;;
39214;SDS011;24932;51.746;14.334;2023-05-09T11:48:40;3.45;;;1.98;;
39214;SDS011;24932;51.746;14.334;2023-05-09T11:52:40;2.9;;;1.87;;
39214;SDS011;24932;51.746;14.334;2023-05-09T11:56:41;5.62;;;1.95;;
39214;SDS011;24932;51.746;14.334;2023-05-09T12:00:42;7.25;;;2.78;;
39214;SDS011;24932;51.746;14.334;2023-05-09T12:04:41;2.65;;;2.1;;
39214;SDS011;24932;51.746;14.334;2023-05-09T12:08:40;5.78;;;1.92;;
39214;SDS011;24932;51.746;14.334;2023-05-09T12:12:41;4.28;;;2.17;;
39214;SDS011;24932;51.746;14.334;2023-05-09T12:16:44;4.62;;;1.95;;
39214;SDS011;24932;51.746;14.334;2023-05-09T12:20:41;2.83;;;2.08;;
39214;SDS011;24932;51.746;14.334;2023-05-09T12:24:40;6.9;;;2.15;;
39214;SDS011;24932;51.746;14.334;2023-05-09T12:28:40;2.85;;;2.22;;
39214;SDS011;24932;51.746;14.334;2023-05-09T12:32:41;4.4;;;2.3;;
39214;SDS011;24932;51.746;14.334;2023-05-09T12:36:42;2.83;;;1.9;;
39214;SDS011;24932;51.746;14.334;2023-05-09T12:40:40;7.07;;;1.85;;
39214;SDS011;24932;51.746;14.334;2023-05-09T12:44:40;4.68;;;2.1;;
39214;SDS011;24932;51.746;14.334;2023-05-09T12:48:40;6.87;;;2.08;;
39214;SDS011;24932;51.746;14.334;2023-05-09T12:53:02;5.95;;;2.0;;
39214;SDS011;24932;51.746;14.334;2023-05-09T12:56:40;3.4;;;2.42;;
39214;SDS011;24932;51.746;14.334;2023-05-09T13:00:41;7.53;;;1.75;;
39214;SDS011;24932;51.746;14.334;2023-05-09T13:04:40;4.1;;;2.0;;
39214;SDS011;24932;51.746;14.334;2023-05-09T13:08:40;2.25;;;1.73;;
39214;SDS011;24932;51.746;14.334;2023-05-09T13:12:41;3.4;;;2.0;;
39214;SDS011;24932;51.746;14.334;2023-05-09T13:16:40;3.33;;;2.5;;
39214;SDS011;24932;51.746;14.334;2023-05-09T13:20:41;2.53;;;2.03;;
39214;SDS011;24932;51.746;14.334;2023-05-09T13:24:40;7.1;;;2.3;;
39214;SDS011;24932;51.746;14.334;2023-05-09T13:28:40;3.78;;;2.4;;
39214;SDS011;24932;51.746;14.334;2023-05-09T13:32:40;11.12;;;2.72;;
39214;SDS011;24932;51.746;14.334;2023-05-09T13:36:40;5.18;;;2.33;;
39214;SDS011;24932;51.746;14.334;2023-05-09T13:40:40;5.97;;;2.4;;
39214;SDS011;24932;51.746;14.334;2023-05-09T13:44:40;7.2;;;2.3;;
39214;SDS011;24932;51.746;14.334;2023-05-09T13:48:40;6.57;;;2.15;;
39214;SDS011;24932;51.746;14.334;2023-05-09T13:52:40;9.57;;;2.5;;
39214;SDS011;24932;51.746;14.334;2023-05-09T13:56:40;8.57;;;2.0;;
39214;SDS011;24932;51.746;14.334;2023-05-09T14:00:41;10.23;;;2.28;;
39214;SDS011;24932;51.746;14.334;2023-05-09T14:04:40;6.12;;;2.47;;
39214;SDS011;24932;51.746;14.334;2023-05-09T14:08:40;7.32;;;2.5;;
39214;SDS011;24932;51.746;14.334;2023-05-09T14:12:40;4.47;;;2.33;;
39214;SDS011;24932;51.746;14.334;2023-05-09T14:16:40;5.82;;;2.3;;
39214;SDS011;24932;51.746;14.334;2023-05-09T14:20:40;9.88;;;2.47;;
39214;SDS011;24932;51.746;14.334;2023-05-09T14:24:40;4.55;;;2.8;;
39214;SDS011;24932;51.746;14.334;2023-05-09T14:28:40;3.97;;;2.62;;
39214;SDS011;24932;51.746;14.334;2023-05-09T14:32:40;5.22;;;2.45;;
39214;SDS011;24932;51.746;14.334;2023-05-09T14:36:40;18.52;;;2.3;;
39214;SDS011;24932;51.746;14.334;2023-05-09T14:40:41;9.52;;;2.65;;
39214;SDS011;24932;51.746;14.334;2023-05-09T14:44:40;3.42;;;2.3;;
39214;SDS011;24932;51.746;14.334;2023-05-09T14:48:41;4.75;;;2.2;;
39214;SDS011;24932;51.746;14.334;2023-05-09T14:52:40;3.95;;;1.9;;
39214;SDS011;24932;51.746;14.334;2023-05-09T14:56:40;5.75;;;2.03;;
39214;SDS011;24932;51.746;14.334;2023-05-09T15:00:41;3.65;;;2.17;;
39214;SDS011;24932;51.746;14.334;2023-05-09T15:04:40;7.8;;;3.1;;
39214;SDS011;24932;51.746;14.334;2023-05-09T15:08:39;10.65;;;3.08;;
39214;SDS011;24932;51.746;14.334;2023-05-09T15:12:40;3.03;;;2.0;;
39214;SDS011;24932;51.746;14.334;2023-05-09T15:16:40;5.0;;;2.22;;
39214;SDS011;24932;51.746;14.334;2023-05-09T15:20:41;6.32;;;2.03;;
39214;SDS011;24932;51.746;14.334;2023-05-09T15:24:40;4.82;;;2.42;;
39214;SDS011;24932;51.746;14.334;2023-05-09T15:28:40;6.07;;;2.37;;
39214;SDS011;24932;51.746;14.334;2023-05-09T15:32:40;7.62;;;2.78;;
39214;SDS011;24932;51.746;14.334;2023-05-09T15:36:40;6.25;;;2.28;;
39214;SDS011;24932;51.746;14.334;2023-05-09T15:40:41;6.9;;;2.4;;
39214;SDS011;24932;51.746;14.334;2023-05-09T15:44:40;7.37;;;2.67;;
39214;SDS011;24932;51.746;14.334;2023-05-09T15:48:40;7.07;;;2.25;;
39214;SDS011;24932;51.746;14.334;2023-05-09T15:52:40;4.28;;;2.5;;
39214;SDS011;24932;51.746;14.334;2023-05-09T15:56:40;3.08;;;2.53;;
39214;SDS011;24932;51.746;14.334;2023-05-09T16:00:40;11.4;;;2.65;;
39214;SDS011;24932;51.746;14.334;2023-05-09T16:04:41;5.93;;;2.45;;
39214;SDS011;24932;51.746;14.334;2023-05-09T16:08:40;5.12;;;2.1;;
39214;SDS011;24932;51.746;14.334;2023-05-09T16:12:40;6.5;;;2.33;;
39214;SDS011;24932;51.746;14.334;2023-05-09T16:16:40;8.1;;;2.03;;
39214;SDS011;24932;51.746;14.334;2023-05-09T16:20:40;5.37;;;2.2;;
39214;SDS011;24932;51.746;14.334;2023-05-09T16:24:40;16.37;;;2.9;;
39214;SDS011;24932;51.746;14.334;2023-05-09T16:28:40;11.15;;;2.4;;
39214;SDS011;24932;51.746;14.334;2023-05-09T16:32:41;8.5;;;2.42;;
39214;SDS011;24932;51.746;14.334;2023-05-09T16:36:39;8.38;;;2.62;;
39214;SDS011;24932;51.746;14.334;2023-05-09T16:40:41;6.1;;;2.62;;
39214;SDS011;24932;51.746;14.334;2023-05-09T16:44:40;4.43;;;2.42;;
39214;SDS011;24932;51.746;14.334;2023-05-09T16:48:40;3.87;;;2.45;;
39214;SDS011;24932;51.746;14.334;2023-05-09T16:52:40;3.4;;;2.67;;
39214;SDS011;24932;51.746;14.334;2023-05-09T16:56:40;6.8;;;2.65;;
39214;SDS011;24932;51.746;14.334;2023-05-09T17:00:40;5.68;;;2.25;;
39214;SDS011;24932;51.746;14.334;2023-05-09T17:04:40;7.65;;;2.95;;
39214;SDS011;24932;51.746;14.334;2023-05-09T17:08:40;3.22;;;2.3;;
39214;SDS011;24932;51.746;14.334;2023-05-09T17:12:40;3.7;;;2.1;;
39214;SDS011;24932;51.746;14.334;2023-05-09T17:16:40;7.18;;;2.87;;
39214;SDS011;24932;51.746;14.334;2023-05-09T17:20:41;3.7;;;2.33;;
39214;SDS011;24932;51.746;14.334;2023-05-09T17:24:40;6.35;;;2.85;;
39214;SDS011;24932;51.746;14.334;2023-05-09T17:28:40;8.45;;;3.17;;
39214;SDS011;24932;51.746;14.334;2023-05-09T17:32:41;7.75;;;2.9;;
39214;SDS011;24932;51.746;14.334;2023-05-09T17:36:40;9.63;;;3.1;;
39214;SDS011;24932;51.746;14.334;2023-05-09T17:40:40;6.05;;;2.92;;
39214;SDS011;24932;51.746;14.334;2023-05-09T17:44:43;7.95;;;2.62;;
39214;SDS011;24932;51.746;14.334;2023-05-09T17:48:40;7.45;;;2.47;;
39214;SDS011;24932;51.746;14.334;2023-05-09T17:52:40;5.43;;;2.55;;
39214;SDS011;24932;51.746;14.334;2023-05-09T17:56:40;4.07;;;2.6;;
39214;SDS011;24932;51.746;14.334;2023-05-09T18:00:40;4.57;;;2.33;;
39214;SDS011;24932;51.746;14.334;2023-05-09T18:04:41;6.65;;;2.42;;
39214;SDS011;24932;51.746;14.334;2023-05-09T18:08:40;9.35;;;2.3;;
39214;SDS011;24932;51.746;14.334;2023-05-09T18:12:41;3.05;;;2.35;;
39214;SDS011;24932;51.746;14.334;2023-05-09T18:16:40;7.12;;;2.45;;
39214;SDS011;24932;51.746;14.334;2023-05-09T18:20:41;4.87;;;2.7;;
39214;SDS011;24932;51.746;14.334;2023-05-09T18:24:40;7.72;;;2.83;;
39214;SDS011;24932;51.746;14.334;2023-05-09T18:28:40;4.3;;;2.1;;
39214;SDS011;24932;51.746;14.334;2023-05-09T18:32:40;3.55;;;2.35;;
39214;SDS011;24932;51.746;14.334;2023-05-09T18:36:39;3.75;;;2.3;;
39214;SDS011;24932;51.746;14.334;2023-05-09T18:40:41;5.45;;;2.97;;
39214;SDS011;24932;51.746;14.334;2023-05-09T18:44:40;5.4;;;2.17;;
39214;SDS011;24932;51.746;14.334;2023-05-09T18:48:40;9.2;;;2.35;;
39214;SDS011;24932;51.746;14.334;2023-05-09T18:52:40;5.43;;;2.22;;
39214;SDS011;24932;51.746;14.334;2023-05-09T18:56:40;3.17;;;2.15;;
39214;SDS011;24932;51.746;14.334;2023-05-09T19:00:39;3.3;;;2.37;;
39214;SDS011;24932;51.746;14.334;2023-05-09T19:04:41;3.85;;;2.47;;
39214;SDS011;24932;51.746;14.334;2023-05-09T19:08:40;4.35;;;2.75;;
39214;SDS011;24932;51.746;14.334;2023-05-09T19:12:40;14.63;;;3.08;;
39214;SDS011;24932;51.746;14.334;2023-05-09T19:16:40;6.3;;;2.45;;
39214;SDS011;24932;51.746;14.334;2023-05-09T19:20:40;8.13;;;2.5;;
39214;SDS011;24932;51.746;14.334;2023-05-09T19:24:40;8.8;;;2.45;;
39214;SDS011;24932;51.746;14.334;2023-05-09T19:28:41;5.68;;;2.83;;
39214;SDS011;24932;51.746;14.334;2023-05-09T19:32:40;6.87;;;3.6;;
39214;SDS011;24932;51.746;14.334;2023-05-09T19:36:40;3.6;;;2.7;;
39214;SDS011;24932;51.746;14.334;2023-05-09T19:40:40;6.47;;;2.7;;
39214;SDS011;24932;51.746;14.334;2023-05-09T19:44:40;11.25;;;2.85;;
39214;SDS011;24932;51.746;14.334;2023-05-09T19:48:40;4.85;;;2.8;;
39214;SDS011;24932;51.746;14.334;2023-05-09T19:52:40;6.0;;;2.95;;
39214;SDS011;24932;51.746;14.334;2023-05-09T19:56:40;10.2;;;3.4;;
39214;SDS011;24932;51.746;14.334;2023-05-09T20:00:40;8.07;;;2.8;;
39214;SDS011;24932;51.746;14.334;2023-05-09T20:04:40;5.25;;;2.5;;
39214;SDS011;24932;51.746;14.334;2023-05-09T20:08:40;3.5;;;2.58;;
39214;SDS011;24932;51.746;14.334;2023-05-09T20:12:40;4.12;;;2.83;;
39214;SDS011;24932;51.746;14.334;2023-05-09T20:16:40;6.65;;;3.28;;
39214;SDS011;24932;51.746;14.334;2023-05-09T20:20:41;8.1;;;3.5;;
39214;SDS011;24932;51.746;14.334;2023-05-09T20:24:40;6.57;;;3.15;;
39214;SDS011;24932;51.746;14.334;2023-05-09T20:28:41;3.97;;;2.95;;
39214;SDS011;24932;51.746;14.334;2023-05-09T20:32:40;4.4;;;3.08;;
39214;SDS011;24932;51.746;14.334;2023-05-09T20:36:40;4.4;;;2.8;;
39214;SDS011;24932;51.746;14.334;2023-05-09T20:40:41;6.03;;;3.2;;
39214;SDS011;24932;51.746;14.334;2023-05-09T20:44:40;5.93;;;3.7;;
39214;SDS011;24932;51.746;14.334;2023-05-09T20:48:40;6.32;;;3.42;;
39214;SDS011;24932;51.746;14.334;2023-05-09T20:52:40;10.13;;;5.15;;
39214;SDS011;24932;51.746;14.334;2023-05-09T20:56:40;4.93;;;3.92;;
39214;SDS011;24932;51.746;14.334;2023-05-09T21:00:40;6.32;;;3.67;;
39214;SDS011;24932;51.746;14.334;2023-05-09T21:04:40;7.07;;;3.72;;
39214;SDS011;24932;51.746;14.334;2023-05-09T21:08:40;4.55;;;3.67;;
39214;SDS011;24932;51.746;14.334;2023-05-09T21:12:41;6.62;;;4.2;;
39214;SDS011;24932;51.746;14.334;2023-05-09T21:16:40;8.1;;;4.15;;
39214;SDS011;24932;51.746;14.334;2023-05-09T21:20:40;5.2;;;3.37;;
39214;SDS011;24932;51.746;14.334;2023-05-09T21:24:40;6.22;;;4.37;;
39214;SDS011;24932;51.746;14.334;2023-05-09T21:28:40;8.88;;;4.43;;
39214;SDS011;24932;51.746;14.334;2023-05-09T21:32:39;9.85;;;4.45;;
39214;SDS011;24932;51.746;14.334;2023-05-09T21:36:39;5.68;;;4.0;;
39214;SDS011;24932;51.746;14.334;2023-05-09T21:40:39;9.9;;;3.97;;
39214;SDS011;24932;51.746;14.334;2023-05-09T21:44:40;8.52;;;5.12;;
39214;SDS011;24932;51.746;14.334;2023-05-09T21:48:40;10.2;;;4.35;;
39214;SDS011;24932;51.746;14.334;2023-05-09T21:52:39;9.05;;;4.82;;
39214;SDS011;24932;51.746;14.334;2023-05-09T21:56:40;13.9;;;4.5;;
39214;SDS011;24932;51.746;14.334;2023-05-09T22:00:39;10.2;;;5.12;;
39214;SDS011;24932;51.746;14.334;2023-05-09T22:04:41;9.5;;;4.1;;
39214;SDS011;24932;51.746;14.334;2023-05-09T22:08:40;4.85;;;4.05;;
39214;SDS011;24932;51.746;14.334;2023-05-09T22:12:39;7.78;;;4.7;;
39214;SDS011;24932;51.746;14.334;2023-05-09T22:16:40;6.53;;;4.15;;
39214;SDS011;24932;51.746;14.334;2023-05-09T22:20:40;8.88;;;6.37;;
39214;SDS011;24932;51.746;14.334;2023-05-09T22:24:40;8.43;;;4.85;;
39214;SDS011;24932;51.746;14.334;2023-05-09T22:28:40;6.37;;;4.43;;
39214;SDS011;24932;51.746;14.334;2023-05-09T22:32:41;9.43;;;4.93;;
39214;SDS011;24932;51.746;14.334;2023-05-09T22:36:41;7.1;;;5.03;;
39214;SDS011;24932;51.746;14.334;2023-05-09T22:40:40;8.05;;;4.5;;
39214;SDS011;24932;51.746;14.334;2023-05-09T22:44:40;6.15;;;4.62;;
39214;SDS011;24932;51.746;14.334;2023-05-09T22:48:40;6.85;;;4.85;;
39214;SDS011;24932;51.746;14.334;2023-05-09T22:52:39;11.7;;;5.15;;
39214;SDS011;24932;51.746;14.334;2023-05-09T22:56:40;5.72;;;5.07;;
39214;SDS011;24932;51.746;14.334;2023-05-09T23:00:40;8.27;;;5.2;;
39214;SDS011;24932;51.746;14.334;2023-05-09T23:04:40;9.45;;;5.1;;
39214;SDS011;24932;51.746;14.334;2023-05-09T23:08:41;9.07;;;5.7;;
39214;SDS011;24932;51.746;14.334;2023-05-09T23:12:39;8.05;;;5.5;;
39214;SDS011;24932;51.746;14.334;2023-05-09T23:16:40;8.7;;;5.6;;
39214;SDS011;24932;51.746;14.334;2023-05-09T23:20:41;10.7;;;4.9;;
39214;SDS011;24932;51.746;14.334;2023-05-09T23:24:40;10.7;;;4.72;;
39214;SDS011;24932;51.746;14.334;2023-05-09T23:28:41;10.07;;;5.1;;
39214;SDS011;24932;51.746;14.334;2023-05-09T23:32:41;8.75;;;5.75;;
39214;SDS011;24932;51.746;14.334;2023-05-09T23:36:39;11.93;;;4.82;;
39214;SDS011;24932;51.746;14.334;2023-05-09T23:40:42;8.57;;;5.2;;
39214;SDS011;24932;51.746;14.334;2023-05-09T23:44:40;12.75;;;5.95;;
39214;SDS011;24932;51.746;14.334;2023-05-09T23:48:39;15.55;;;5.55;;
39214;SDS011;24932;51.746;14.334;2023-05-09T23:52:40;9.82;;;4.57;;